Time;durP1;ratioP1;P1;durP2;ratioP2;P2;SDS_P1;SDS_P2;PMS_P1;PMS_P2;Temp;Humidity;BMP_temperature;BMP_pressure;BME280_temperature;BME280_humidity;BME280_pressure;Samples;Min_cycle;Max_cycle;Signal;HPM_P1;HPM_P2
2023/05/13 00:01:15;;;;;;;1.98;1.65;;;;;;;23.81;45.21;101955.75;5023795;27;96958;-76
2023/05/13 00:03:43;;;;;;;1.70;1.60;;;;;;;23.80;45.01;101948.56;5039216;27;97347;-76
2023/05/13 00:06:10;;;;;;;2.40;1.73;;;;;;;23.80;45.01;101948.56;5040221;27;99454;-76
2023/05/13 00:08:37;;;;;;;2.05;1.80;;;;;;;23.81;44.79;101944.78;5037190;27;97315;-76
2023/05/13 00:11:03;;;;;;;2.00;1.63;;;;;;;23.81;44.95;101949.41;5039858;27;97513;-76
2023/05/13 00:13:30;;;;;;;1.70;1.60;;;;;;;23.80;44.95;101940.31;5037474;27;96910;-76
2023/05/13 00:15:56;;;;;;;1.80;1.60;;;;;;;23.80;44.87;101945.81;5040059;27;97242;-76
2023/05/13 00:18:23;;;;;;;1.88;1.65;;;;;;;23.80;44.99;101945.81;5045673;27;97403;-76
2023/05/13 00:20:50;;;;;;;2.03;1.70;;;;;;;23.80;45.17;101932.09;5044389;27;97341;-76
2023/05/13 00:23:17;;;;;;;1.92;1.75;;;;;;;23.80;45.05;101942.22;5039386;27;96680;-76
2023/05/13 00:25:43;;;;;;;3.53;1.80;;;;;;;23.80;44.92;101942.22;5037087;27;98037;-76
2023/05/13 00:28:12;;;;;;;1.73;1.52;;;;;;;23.80;44.90;101934.84;5045352;27;97428;-76
2023/05/13 00:30:42;;;;;;;1.65;1.30;;;;;;;23.81;45.09;101935.69;5021633;27;96833;-76
2023/05/13 00:33:09;;;;;;;1.60;1.50;;;;;;;23.81;45.08;101941.19;5046222;27;99489;-77
2023/05/13 00:35:35;;;;;;;2.13;1.85;;;;;;;23.81;44.84;101938.44;5043925;27;96968;-76
2023/05/13 00:38:02;;;;;;;1.80;1.48;;;;;;;23.81;44.84;101942.03;5050014;27;96953;-76
2023/05/13 00:40:28;;;;;;;1.75;1.50;;;;;;;23.81;44.93;101938.44;5047969;27;97177;-76
2023/05/13 00:42:55;;;;;;;1.80;1.60;;;;;;;23.81;45.23;101938.44;5043163;27;96714;-76
2023/05/13 00:45:22;;;;;;;1.70;1.60;;;;;;;23.81;45.05;101943.91;5041847;27;97158;-76
2023/05/13 00:47:49;;;;;;;1.77;1.50;;;;;;;23.82;45.14;101942.91;5042468;27;98817;-76
2023/05/13 00:50:15;;;;;;;2.00;1.48;;;;;;;23.82;45.14;101948.38;5026078;27;97076;-76
2023/05/13 00:52:43;;;;;;;1.38;1.27;;;;;;;23.83;45.15;101948.22;5039844;27;97391;-76
2023/05/13 00:55:10;;;;;;;1.83;1.70;;;;;;;23.83;44.83;101944.63;5045786;27;96944;-76
2023/05/13 00:57:39;;;;;;;1.90;1.52;;;;;;;23.82;44.92;101943.75;5038967;27;96732;-76
2023/05/13 01:00:06;;;;;;;2.00;1.70;;;;;;;23.82;44.70;101946.50;5045645;27;97363;-76
2023/05/13 01:03:11;;;;;;;1.98;1.77;;;;;;;23.82;44.93;101941.00;5048097;27;96854;-76
2023/05/13 01:06:00;;;;;;;1.60;1.50;;;;;;;23.80;44.80;101943.06;4986828;28;97735;-76
2023/05/13 01:08:52;;;;;;;1.77;1.67;;;;;;;23.81;45.17;101942.03;5038275;27;97440;-76
2023/05/13 01:11:26;;;;;;;2.42;1.80;;;;;;;23.79;45.18;101941.34;5047683;27;96964;-77
2023/05/13 01:14:01;;;;;;;1.60;1.50;;;;;;;23.80;44.98;101937.56;5059915;27;97293;-76
2023/05/13 01:16:35;;;;;;;;;;;;;;;23.75;44.91;101935.31;5043621;27;97508;-76
2023/05/13 01:19:11;;;;;;;1.77;1.67;;;;;;;23.76;44.90;101944.41;5049768;27;97470;-76
2023/05/13 01:21:39;;;;;;;1.60;1.40;;;;;;;23.76;45.32;101941.66;5040707;27;97150;-76
2023/05/13 01:24:06;;;;;;;1.60;1.40;;;;;;;23.77;44.89;101940.63;5037319;27;97261;-76
2023/05/13 01:26:32;;;;;;;2.10;1.50;;;;;;;23.79;44.94;101940.50;5045361;27;98595;-76
2023/05/13 01:28:59;;;;;;;1.95;1.60;;;;;;;23.77;44.76;101938.75;5042143;27;97054;-76
2023/05/13 01:31:26;;;;;;;1.80;1.63;;;;;;;23.79;45.22;101944.09;5040958;27;97076;-76
2023/05/13 01:33:53;;;;;;;1.60;1.50;;;;;;;23.79;44.90;101937.75;5040235;27;96848;-76
2023/05/13 01:36:20;;;;;;;1.60;1.50;;;;;;;23.79;44.82;101935.00;5026075;27;97693;-76
2023/05/13 01:38:48;;;;;;;1.45;1.35;;;;;;;23.79;44.87;101944.09;5039788;27;100182;-76
2023/05/13 01:41:14;;;;;;;1.63;1.52;;;;;;;23.80;44.63;101943.06;5024204;27;97266;-76
2023/05/13 01:43:41;;;;;;;3.13;1.60;;;;;;;23.79;44.65;101946.84;5042020;27;96832;-76
2023/05/13 01:46:11;;;;;;;1.70;1.60;;;;;;;23.81;45.04;101942.03;5042742;27;100081;-76
2023/05/13 01:48:38;;;;;;;1.52;1.40;;;;;;;23.80;44.68;101947.69;5057961;27;97298;-76
2023/05/13 01:51:05;;;;;;;2.10;1.90;;;;;;;23.79;44.69;101944.09;5027433;27;97262;-76
2023/05/13 01:53:32;;;;;;;1.90;1.50;;;;;;;23.79;44.99;101946.84;5043227;27;97047;-76
2023/05/13 01:55:59;;;;;;;2.13;1.60;;;;;;;23.79;44.72;101941.34;5045640;27;96952;-76
2023/05/13 01:58:25;;;;;;;1.60;1.50;;;;;;;23.79;44.85;101946.84;5032375;27;98157;-76
2023/05/13 02:00:52;;;;;;;1.60;1.45;;;;;;;23.79;44.58;101941.34;5040193;27;96810;-76
2023/05/13 02:03:19;;;;;;;1.83;1.58;;;;;;;23.79;44.85;101943.22;5042164;27;96705;-76
2023/05/13 02:05:47;;;;;;;1.55;1.45;;;;;;;23.78;44.76;101939.59;5040718;27;97211;-76
2023/05/13 02:08:14;;;;;;;1.60;1.50;;;;;;;23.78;44.66;101942.34;5043972;27;99469;-76
2023/05/13 02:10:40;;;;;;;1.73;1.52;;;;;;;23.78;44.81;101934.13;5043091;27;97344;-76
2023/05/13 02:13:08;;;;;;;1.70;1.60;;;;;;;23.77;44.79;101937.88;5048609;27;97604;-76
2023/05/13 02:15:34;;;;;;;2.00;1.63;;;;;;;23.77;44.57;101937.88;5041028;27;96880;-76
2023/05/13 02:18:01;;;;;;;1.55;1.42;;;;;;;23.78;44.78;101936.84;5045627;27;100470;-76
2023/05/13 02:20:28;;;;;;;1.90;1.65;;;;;;;23.78;44.43;101939.59;5030909;27;97371;-76
2023/05/13 02:22:55;;;;;;;1.90;1.70;;;;;;;23.77;44.78;101938.75;5042716;27;96864;-76
2023/05/13 02:25:21;;;;;;;1.60;1.50;;;;;;;23.77;44.84;101943.38;5038452;27;97116;-76
2023/05/13 02:27:48;;;;;;;1.45;1.35;;;;;;;23.77;44.75;101946.13;5047795;27;97057;-76
2023/05/13 02:30:14;;;;;;;1.70;1.58;;;;;;;23.76;44.82;101942.50;5045742;27;96814;-76
2023/05/13 02:32:43;;;;;;;1.70;1.60;;;;;;;23.77;44.49;101943.38;5042956;27;96990;-76
2023/05/13 02:35:10;;;;;;;1.70;1.45;;;;;;;23.76;44.58;101950.75;5042997;27;97832;-76
2023/05/13 02:37:36;;;;;;;1.55;1.45;;;;;;;23.76;44.70;101950.75;5045622;27;97221;-76
2023/05/13 02:40:04;;;;;;;1.58;1.48;;;;;;;23.76;44.94;101948.00;5047014;27;97217;-76
2023/05/13 02:42:30;;;;;;;1.75;1.50;;;;;;;23.76;44.74;101947.13;5036985;27;97304;-76
2023/05/13 02:44:58;;;;;;;1.63;1.52;;;;;;;23.76;44.64;101941.66;5037924;27;99735;-76
2023/05/13 02:47:27;;;;;;;1.45;1.33;;;;;;;23.75;44.60;101940.78;5049544;27;97217;-76
2023/05/13 02:49:57;;;;;;;2.05;1.85;;;;;;;23.75;44.78;101940.78;5044250;27;96971;-76
2023/05/13 02:52:23;;;;;;;1.90;1.40;;;;;;;23.76;44.60;101937.03;5040763;27;96784;-76
2023/05/13 02:54:50;;;;;;;1.60;1.50;;;;;;;23.75;44.43;101931.72;5041392;27;97024;-76
2023/05/13 02:57:17;;;;;;;1.83;1.50;;;;;;;23.75;44.66;101934.44;5022365;27;96703;-76
2023/05/13 02:59:44;;;;;;;1.25;1.15;;;;;;;23.75;44.53;101935.31;5038805;27;96841;-76
2023/05/13 03:02:10;;;;;;;1.50;1.38;;;;;;;23.74;44.44;101939.09;5043952;27;97135;-76
2023/05/13 03:04:37;;;;;;;1.50;1.40;;;;;;;23.74;44.17;101941.81;5042037;27;98249;-76
2023/05/13 03:07:04;;;;;;;1.40;1.23;;;;;;;23.75;44.72;101934.44;5041053;27;97257;-76
2023/05/13 03:09:30;;;;;;;1.60;1.50;;;;;;;23.74;44.39;101932.72;5043697;27;96954;-76
2023/05/13 03:11:58;;;;;;;1.33;1.20;;;;;;;23.73;44.30;101931.88;5036270;27;97235;-76
2023/05/13 03:14:25;;;;;;;2.15;1.60;;;;;;;23.74;44.16;101939.09;5040094;27;100641;-76
2023/05/13 03:16:52;;;;;;;1.55;1.33;;;;;;;23.74;44.06;101932.72;5039793;27;96730;-76
2023/05/13 03:19:19;;;;;;;1.55;1.45;;;;;;;23.74;44.63;101939.09;5040244;27;96833;-76
2023/05/13 03:21:45;;;;;;;1.65;1.30;;;;;;;23.74;44.75;101938.22;5041547;27;97100;-76
2023/05/13 03:24:14;;;;;;;1.85;1.55;;;;;;;23.72;44.62;101934.78;5041660;27;97459;-76
2023/05/13 03:26:41;;;;;;;1.40;1.30;;;;;;;23.72;44.68;101940.28;5038025;27;97094;-76
2023/05/13 03:29:08;;;;;;;1.88;1.60;;;;;;;23.72;44.53;101932.91;5043546;27;96847;-76
2023/05/13 03:31:36;;;;;;;1.45;1.35;;;;;;;23.72;44.43;101938.38;5043817;27;97676;-76
2023/05/13 03:34:04;;;;;;;1.65;1.50;;;;;;;23.73;44.51;101937.38;5043961;27;97720;-76
2023/05/13 03:36:32;;;;;;;1.65;1.55;;;;;;;23.71;44.55;101939.41;5039149;27;99284;-76
2023/05/13 03:38:59;;;;;;;1.50;1.40;;;;;;;23.71;44.30;101938.56;5028909;27;96904;-76
2023/05/13 03:41:27;;;;;;;1.90;1.50;;;;;;;23.70;44.59;101943.19;5041022;27;96901;-76
2023/05/13 03:43:55;;;;;;;1.40;1.30;;;;;;;23.71;44.51;101933.06;5046588;27;99356;-76
2023/05/13 03:46:22;;;;;;;1.30;1.20;;;;;;;23.70;44.43;101943.19;5044437;27;96878;-76
2023/05/13 03:48:49;;;;;;;1.48;1.33;;;;;;;23.71;44.31;101941.31;5033108;27;97129;-76
2023/05/13 03:51:15;;;;;;;1.67;1.50;;;;;;;23.70;44.26;101943.19;5044364;27;97087;-76
2023/05/13 03:53:43;;;;;;;1.80;1.40;;;;;;;23.71;44.71;101949.53;5045279;27;97324;-76
2023/05/13 03:56:09;;;;;;;2.17;1.63;;;;;;;23.70;44.70;101945.06;5024904;27;99538;-76
2023/05/13 03:58:36;;;;;;;1.67;1.58;;;;;;;23.70;44.79;101942.31;5046694;27;97152;-76
2023/05/13 04:01:03;;;;;;;1.73;1.40;;;;;;;23.70;44.39;101947.81;5042610;27;97039;-74
2023/05/13 04:03:30;;;;;;;1.80;1.60;;;;;;;23.70;44.25;101948.66;5047332;27;99710;-76
2023/05/13 04:05:56;;;;;;;1.60;1.50;;;;;;;23.70;44.31;101945.06;5046315;27;96750;-76
2023/05/13 04:08:23;;;;;;;1.45;1.35;;;;;;;23.70;44.68;101948.66;5044409;27;96641;-76
2023/05/13 04:10:49;;;;;;;1.48;1.38;;;;;;;23.70;44.39;101945.06;5047899;27;96722;-76
2023/05/13 04:13:17;;;;;;;1.50;1.40;;;;;;;23.70;44.58;101947.81;5044609;27;97482;-76
2023/05/13 04:15:43;;;;;;;1.63;1.52;;;;;;;23.69;44.44;101952.44;5037648;27;97267;-76
2023/05/13 04:18:10;;;;;;;1.60;1.50;;;;;;;23.69;44.68;101951.59;5041221;27;96901;-76
2023/05/13 04:20:38;;;;;;;1.60;1.48;;;;;;;23.69;44.58;101948.84;5036916;27;97218;-76
2023/05/13 04:23:05;;;;;;;2.03;1.40;;;;;;;23.69;44.49;101949.69;5047475;27;97509;-76
2023/05/13 04:25:34;;;;;;;1.88;1.50;;;;;;;23.69;44.18;101952.44;5039734;27;97192;-76
2023/05/13 04:28:01;;;;;;;1.30;1.20;;;;;;;23.69;44.33;101951.59;5024019;27;96807;-76
2023/05/13 04:30:31;;;;;;;1.90;1.45;;;;;;;23.68;44.05;101955.34;5039749;27;98002;-76
2023/05/13 04:32:57;;;;;;;1.75;1.60;;;;;;;23.69;44.37;101955.19;5045187;27;97112;-76
2023/05/13 04:35:24;;;;;;;1.80;1.60;;;;;;;23.68;44.32;101952.59;5042172;27;99425;-76
2023/05/13 04:37:55;;;;;;;1.48;1.38;;;;;;;23.68;44.41;101952.59;5047054;27;96780;-76
2023/05/13 04:40:21;;;;;;;1.45;1.35;;;;;;;23.67;44.42;101954.50;5055595;27;97016;-76
2023/05/13 04:42:53;;;;;;;1.60;1.50;;;;;;;23.68;44.15;101961.69;5037262;27;99046;-76
2023/05/13 04:45:30;;;;;;;1.70;1.60;;;;;;;23.66;44.29;101951.91;5057372;27;97526;-76
2023/05/13 04:47:57;;;;;;;1.75;1.25;;;;;;;23.66;44.45;101960.16;5054854;27;96748;-76
2023/05/13 04:50:24;;;;;;;2.25;1.63;;;;;;;23.67;44.39;101965.47;5047937;27;96940;-76
2023/05/13 04:52:53;;;;;;;1.50;1.40;;;;;;;23.66;44.14;101958.25;5044490;27;99626;-76
2023/05/13 04:55:20;;;;;;;1.60;1.50;;;;;;;23.67;44.21;101965.47;5040520;27;97204;-76
2023/05/13 04:57:47;;;;;;;1.50;1.40;;;;;;;23.68;44.44;101963.59;5047869;27;96801;-76
2023/05/13 05:00:14;;;;;;;1.50;1.40;;;;;;;23.67;44.32;101968.22;5060355;27;97121;-76
2023/05/13 05:02:43;;;;;;;2.83;1.60;;;;;;;23.67;44.39;101973.69;5034416;27;96901;-76
2023/05/13 05:05:10;;;;;;;1.30;1.20;;;;;;;23.66;44.40;101971.97;5039287;27;98971;-76
2023/05/13 05:07:39;;;;;;;1.48;1.30;;;;;;;23.67;44.64;101981.06;5041489;27;96690;-76
2023/05/13 05:10:07;;;;;;;1.50;1.40;;;;;;;23.66;44.16;101976.59;5044871;27;96811;-76
2023/05/13 05:12:37;;;;;;;1.48;1.38;;;;;;;23.66;44.52;101974.72;5028225;27;99111;-76
2023/05/13 05:15:05;;;;;;;1.45;1.10;;;;;;;23.67;44.13;101978.31;5038620;27;100816;-76
2023/05/13 05:17:32;;;;;;;1.83;1.50;;;;;;;23.66;44.32;101982.09;5042963;27;96899;-76
2023/05/13 05:20:01;;;;;;;1.52;1.42;;;;;;;23.66;44.38;101990.31;5035815;27;97617;-76
2023/05/13 05:22:28;;;;;;;1.60;1.48;;;;;;;23.66;44.11;101991.19;5050715;27;96830;-76
2023/05/13 05:24:55;;;;;;;1.60;1.50;;;;;;;23.66;44.35;101988.44;5047409;27;96960;-76
2023/05/13 05:27:23;;;;;;;1.67;1.40;;;;;;;23.66;43.99;101996.66;5039979;27;99307;-76
2023/05/13 05:29:50;;;;;;;1.40;1.30;;;;;;;23.66;44.53;101993.91;5024740;27;96745;-76
2023/05/13 05:32:16;;;;;;;1.40;1.30;;;;;;;23.66;44.22;101991.19;5046261;27;97421;-76
2023/05/13 05:34:43;;;;;;;1.40;1.30;;;;;;;23.67;44.11;101997.50;5048096;27;99531;-76
2023/05/13 05:37:10;;;;;;;1.90;1.80;;;;;;;23.67;44.04;102003.00;5045326;27;96968;-76
2023/05/13 05:39:37;;;;;;;1.42;1.33;;;;;;;23.68;44.20;101999.22;5042701;27;96913;-76
2023/05/13 05:42:04;;;;;;;1.85;1.30;;;;;;;23.67;44.13;102003.88;5043220;27;100534;-76
2023/05/13 05:44:31;;;;;;;1.58;1.40;;;;;;;23.66;43.96;101998.53;5047642;27;99096;-76
2023/05/13 05:46:57;;;;;;;1.30;1.20;;;;;;;23.65;43.97;102003.16;5045310;27;97276;-76
2023/05/13 05:49:24;;;;;;;1.85;1.70;;;;;;;23.66;44.11;102006.78;5045286;27;96765;-76
2023/05/13 05:51:51;;;;;;;1.50;1.38;;;;;;;23.67;43.93;102001.13;5049922;27;99313;-76
2023/05/13 05:54:20;;;;;;;2.53;1.60;;;;;;;23.66;44.08;102002.16;5042455;27;99481;-76
2023/05/13 05:56:47;;;;;;;1.60;1.50;;;;;;;23.67;44.09;102009.34;5050147;27;96842;-76
2023/05/13 05:59:13;;;;;;;1.40;1.30;;;;;;;23.67;43.64;102003.88;5043932;27;97077;-76
2023/05/13 06:01:40;;;;;;;1.83;1.40;;;;;;;23.67;44.38;102000.25;5032607;27;99712;-76
2023/05/13 06:04:06;;;;;;;1.55;1.45;;;;;;;23.67;44.19;102003.00;5040019;27;97460;-76
2023/05/13 06:06:33;;;;;;;2.22;1.40;;;;;;;23.67;44.07;102009.34;5040966;27;97143;-76
2023/05/13 06:09:00;;;;;;;1.65;1.50;;;;;;;23.67;44.09;102008.50;5047977;27;96983;-76
2023/05/13 06:11:27;;;;;;;1.60;1.50;;;;;;;23.68;44.01;102011.06;5046975;27;99821;-76
2023/05/13 06:13:53;;;;;;;1.65;1.30;;;;;;;23.67;44.23;102009.34;5045995;27;97729;-76
2023/05/13 06:16:20;;;;;;;1.45;1.30;;;;;;;23.69;44.20;102011.94;5048394;27;96582;-77
2023/05/13 06:18:46;;;;;;;1.40;1.30;;;;;;;23.68;43.85;102012.94;5049181;27;96778;-76
2023/05/13 06:21:13;;;;;;;1.65;1.55;;;;;;;23.68;44.13;102018.44;5049448;27;99479;-76
2023/05/13 06:23:40;;;;;;;1.40;1.30;;;;;;;23.68;44.27;102021.19;5044130;27;97902;-76
2023/05/13 06:26:06;;;;;;;1.48;1.38;;;;;;;23.68;44.11;102015.69;5043997;27;97081;-76
2023/05/13 06:28:33;;;;;;;1.48;1.33;;;;;;;23.69;44.02;102017.41;5046020;27;97262;-76
2023/05/13 06:31:00;;;;;;;1.50;1.30;;;;;;;23.68;43.80;102013.81;5051400;27;97001;-76
2023/05/13 06:33:27;;;;;;;1.60;1.40;;;;;;;23.69;44.16;102017.41;5043500;27;96898;-76
2023/05/13 06:35:54;;;;;;;1.40;1.15;;;;;;;23.68;43.74;102016.56;5043139;27;96848;-76
2023/05/13 06:38:22;;;;;;;1.45;1.35;;;;;;;23.68;44.13;102019.28;5026758;27;96884;-76
2023/05/13 06:40:53;;;;;;;1.48;1.38;;;;;;;23.69;44.19;102015.53;5049052;27;100087;-76
2023/05/13 06:43:26;;;;;;;1.45;1.30;;;;;;;23.69;44.04;102022.91;5022468;27;97822;-76
2023/05/13 06:45:56;;;;;;;1.58;1.48;;;;;;;23.70;43.88;102019.13;5046785;27;96733;-77
2023/05/13 06:48:25;;;;;;;1.52;1.42;;;;;;;23.70;43.95;102025.47;5045045;27;96796;-76
2023/05/13 06:50:51;;;;;;;1.30;1.20;;;;;;;23.70;43.73;102024.63;5042381;27;100438;-76
2023/05/13 06:53:18;;;;;;;1.77;1.50;;;;;;;23.70;43.83;102025.47;5047666;27;97225;-76
2023/05/13 06:55:44;;;;;;;1.60;1.50;;;;;;;23.71;44.34;102023.59;5044203;27;97034;-76
2023/05/13 06:58:11;;;;;;;1.58;1.40;;;;;;;23.70;44.07;102028.22;5045594;27;96707;-76
2023/05/13 07:00:39;;;;;;;2.45;1.20;;;;;;;23.71;44.19;102026.34;5050423;27;97634;-76
2023/05/13 07:03:06;;;;;;;1.95;1.80;;;;;;;23.71;44.21;102021.69;5040846;27;96857;-76
2023/05/13 07:05:33;;;;;;;1.38;1.27;;;;;;;23.70;44.03;102019.97;5044974;27;96907;-76
2023/05/13 07:08:05;;;;;;;2.03;1.50;;;;;;;23.72;43.99;102022.56;5048173;27;97093;-76
2023/05/13 07:10:32;;;;;;;1.85;1.70;;;;;;;23.71;44.06;102032.69;5045847;27;97152;-76
2023/05/13 07:13:00;;;;;;;1.98;1.70;;;;;;;23.71;43.90;102027.19;5043956;27;97396;-76
2023/05/13 07:15:27;;;;;;;1.90;1.60;;;;;;;23.72;43.88;102030.78;5037908;27;96810;-76
2023/05/13 07:17:53;;;;;;;1.65;1.50;;;;;;;23.71;44.24;102031.81;5026578;27;96813;-76
2023/05/13 07:20:21;;;;;;;1.40;1.30;;;;;;;23.71;43.90;102032.69;5036980;27;97508;-76
2023/05/13 07:22:48;;;;;;;2.65;1.70;;;;;;;23.72;44.18;102031.66;5029276;27;98230;-76
2023/05/13 07:25:16;;;;;;;1.98;1.20;;;;;;;23.73;44.14;102038.00;5024233;27;96859;-76
2023/05/13 07:27:43;;;;;;;1.52;1.42;;;;;;;23.73;44.28;102041.59;5038904;27;97229;-77
2023/05/13 07:30:11;;;;;;;1.75;1.55;;;;;;;23.74;43.88;102032.34;5045411;27;97349;-76
2023/05/13 07:32:38;;;;;;;1.50;1.40;;;;;;;23.74;44.18;102029.59;5038765;27;96826;-76
2023/05/13 07:35:06;;;;;;;1.50;1.40;;;;;;;23.73;44.16;102030.63;5046579;27;97063;-76
2023/05/13 07:37:32;;;;;;;1.95;1.45;;;;;;;23.75;43.88;102033.19;5056660;27;96689;-76
2023/05/13 07:39:59;;;;;;;2.05;1.58;;;;;;;23.74;44.13;102028.75;5041583;27;97003;-76
2023/05/13 07:42:28;;;;;;;1.70;1.50;;;;;;;23.74;44.14;102032.34;5044383;27;98386;-76
2023/05/13 07:44:55;;;;;;;1.55;1.45;;;;;;;23.76;43.96;102034.91;5043501;27;97231;-76
2023/05/13 07:47:22;;;;;;;2.17;1.38;;;;;;;23.76;44.03;102035.78;5051341;27;97052;-76
2023/05/13 07:49:49;;;;;;;1.52;1.42;;;;;;;23.76;44.17;102033.03;5053131;27;97213;-76
2023/05/13 07:52:15;;;;;;;2.45;1.50;;;;;;;23.77;44.28;102033.91;5039840;27;98688;-76
2023/05/13 07:54:42;;;;;;;2.85;1.67;;;;;;;23.77;44.09;102039.38;5034357;27;97260;-75
2023/05/13 07:57:08;;;;;;;2.00;1.50;;;;;;;23.77;44.30;102040.25;5041689;27;96656;-77
2023/05/13 07:59:35;;;;;;;2.72;2.00;;;;;;;23.77;44.21;102033.91;5043959;27;96699;-77
2023/05/13 08:02:02;;;;;;;1.50;1.25;;;;;;;23.79;44.02;102037.34;5045760;27;97597;-77
2023/05/13 08:04:28;;;;;;;2.35;1.77;;;;;;;23.78;44.28;102041.09;5042355;27;96953;-77
2023/05/13 08:06:55;;;;;;;1.83;1.30;;;;;;;23.79;44.52;102042.00;5034166;27;96930;-74
2023/05/13 08:09:21;;;;;;;2.95;1.50;;;;;;;23.79;44.28;102045.59;5036726;27;96878;-74
2023/05/13 08:11:48;;;;;;;1.95;1.77;;;;;;;23.79;44.39;102044.72;5039597;27;96805;-74
2023/05/13 08:14:14;;;;;;;1.70;1.60;;;;;;;23.80;44.49;102039.06;5048548;27;98174;-75
2023/05/13 08:16:41;;;;;;;1.45;1.30;;;;;;;23.80;44.42;102035.47;5036437;27;96765;-74
2023/05/13 08:19:08;;;;;;;2.85;1.42;;;;;;;23.81;44.20;102039.94;5035983;27;96781;-74
2023/05/13 08:21:35;;;;;;;1.77;1.58;;;;;;;23.81;44.22;102048.16;5033881;27;97244;-74
2023/05/13 08:24:01;;;;;;;2.15;1.73;;;;;;;23.81;44.15;102040.78;5030978;27;96722;-74
2023/05/13 08:26:28;;;;;;;1.88;1.67;;;;;;;23.82;44.04;102036.16;5036507;27;96821;-74
2023/05/13 08:28:56;;;;;;;1.90;1.70;;;;;;;23.81;44.20;102043.53;5042740;27;96641;-77
2023/05/13 08:31:23;;;;;;;2.92;1.73;;;;;;;23.81;44.29;102043.53;5038512;27;97885;-77
2023/05/13 08:33:52;;;;;;;2.33;1.67;;;;;;;23.83;44.50;102052.47;5050647;27;97423;-77
2023/05/13 08:36:19;;;;;;;2.42;2.05;;;;;;;23.82;44.42;102037.03;5038139;27;97160;-77
2023/05/13 08:38:46;;;;;;;2.65;2.20;;;;;;;23.83;44.05;102038.75;5018982;28;98786;-77
2023/05/13 08:41:13;;;;;;;8.05;3.10;;;;;;;23.83;44.06;102046.97;5037666;27;96789;-77
2023/05/13 08:43:44;;;;;;;8.30;3.17;;;;;;;23.84;44.24;102039.59;5048766;27;97122;-77
2023/05/13 08:46:11;;;;;;;3.97;3.58;;;;;;;23.83;44.27;102040.63;5029756;27;97168;-77
2023/05/13 08:48:40;;;;;;;4.15;3.63;;;;;;;23.83;44.06;102035.16;5043281;27;96956;-77
2023/05/13 08:51:08;;;;;;;4.90;3.75;;;;;;;23.84;43.99;102039.59;5038233;27;96870;-77
2023/05/13 08:53:37;;;;;;;3.88;3.45;;;;;;;23.84;44.14;102043.22;5048267;27;96756;-77
2023/05/13 08:56:05;;;;;;;4.38;3.75;;;;;;;23.83;43.65;102030.50;5046652;27;97029;-77
2023/05/13 08:58:32;;;;;;;5.07;3.25;;;;;;;23.84;43.77;102045.09;5037750;27;96888;-77
2023/05/13 09:00:58;;;;;;;6.78;3.97;;;;;;;23.83;43.70;102038.75;5044171;27;96775;-76
2023/05/13 09:03:27;;;;;;;6.78;3.80;;;;;;;23.85;43.28;102033.09;5050915;27;96981;-76
2023/05/13 09:05:54;;;;;;;5.18;4.45;;;;;;;23.83;43.23;102029.66;5046082;27;96823;-76
2023/05/13 09:08:20;;;;;;;4.68;4.20;;;;;;;23.83;42.97;102030.50;5049507;27;97754;-76
2023/05/13 09:10:48;;;;;;;5.25;4.05;;;;;;;23.83;43.11;102030.50;5045508;27;96814;-76
2023/05/13 09:13:17;;;;;;;6.25;4.30;;;;;;;23.84;43.20;102031.38;5049196;27;96708;-76
2023/05/13 09:15:44;;;;;;;4.90;3.97;;;;;;;23.83;43.22;102035.16;5039539;27;97288;-76
2023/05/13 09:18:11;;;;;;;5.28;4.05;;;;;;;23.84;42.93;102034.13;5039395;27;97269;-76
2023/05/13 09:20:38;;;;;;;5.68;4.10;;;;;;;23.83;43.17;102035.16;5035244;27;96899;-76
2023/05/13 09:23:07;;;;;;;4.20;3.90;;;;;;;23.84;42.86;102029.50;5037384;27;97215;-76
2023/05/13 09:25:35;;;;;;;8.15;4.18;;;;;;;23.84;43.20;102037.72;5042692;27;98078;-76
2023/05/13 09:28:04;;;;;;;6.00;3.45;;;;;;;23.84;42.92;102032.22;5036940;27;97806;-77
2023/05/13 09:30:40;;;;;;;3.63;3.33;;;;;;;23.86;43.07;102029.31;5038828;27;97833;-76
2023/05/13 09:33:20;;;;;;;4.70;3.47;;;;;;;23.85;42.98;102027.59;5034312;27;96809;-76
2023/05/13 09:35:52;;;;;;;3.65;3.20;;;;;;;23.85;42.78;102022.97;5017280;27;96904;-77
2023/05/13 09:38:23;;;;;;;4.95;3.38;;;;;;;23.85;43.20;102028.47;5040401;27;96907;-76
2023/05/13 09:40:54;;;;;;;5.55;3.53;;;;;;;23.85;43.27;102011.16;5044454;27;97873;-76
2023/05/13 09:43:24;;;;;;;3.28;2.88;;;;;;;23.85;43.11;102014.75;5047714;27;96889;-76
2023/05/13 09:45:55;;;;;;;3.75;3.30;;;;;;;23.86;43.06;102010.13;5033925;27;96935;-76
2023/05/13 09:48:24;;;;;;;3.05;2.70;;;;;;;23.86;43.16;102010.97;5037305;27;98149;-76
2023/05/13 09:50:52;;;;;;;3.35;3.05;;;;;;;23.86;43.23;102015.59;5031164;27;96806;-76
2023/05/13 09:53:21;;;;;;;3.38;3.05;;;;;;;23.87;43.00;102011.84;5037549;27;96838;-76
2023/05/13 09:55:50;;;;;;;3.85;3.20;;;;;;;23.87;43.15;102009.09;5043850;27;96663;-76
2023/05/13 09:58:19;;;;;;;3.08;2.63;;;;;;;23.87;43.08;102004.47;5032364;27;98126;-75
2023/05/13 10:00:46;;;;;;;4.35;3.10;;;;;;;23.87;43.06;102015.44;5040037;27;97825;-75
2023/05/13 10:03:14;;;;;;;3.22;2.92;;;;;;;23.88;43.24;102008.91;5036520;27;96751;-75
2023/05/13 10:05:41;;;;;;;3.33;3.00;;;;;;;23.88;43.09;102005.31;5045136;27;96804;-75
2023/05/13 10:08:12;;;;;;;3.53;2.70;;;;;;;23.89;42.90;102002.41;5040963;27;97678;-75
2023/05/13 10:10:40;;;;;;;3.10;2.70;;;;;;;23.88;43.15;102003.44;5041591;27;96781;-75
2023/05/13 10:13:09;;;;;;;3.58;3.00;;;;;;;23.89;43.29;102002.41;5042322;27;96986;-75
2023/05/13 10:15:51;;;;;;;3.72;2.60;;;;;;;23.91;43.02;102005.84;5045908;27;96892;-75
2023/05/13 10:18:21;;;;;;;5.28;2.90;;;;;;;23.89;42.90;101996.91;5049928;27;97065;-75
2023/05/13 10:20:54;;;;;;;3.95;2.60;;;;;;;23.89;43.35;101985.09;5028225;27;96740;-75
2023/05/13 10:23:22;;;;;;;3.03;2.83;;;;;;;23.90;43.08;101992.28;5040736;27;97320;-76
2023/05/13 10:25:51;;;;;;;3.38;2.70;;;;;;;23.90;43.12;101990.41;5038970;27;96881;-75
2023/05/13 10:28:19;;;;;;;3.95;2.78;;;;;;;23.91;43.22;101983.03;5037841;27;96860;-75
2023/05/13 10:30:52;;;;;;;3.90;2.78;;;;;;;23.92;43.05;101985.59;5050685;27;97250;-75
2023/05/13 10:33:20;;;;;;;3.17;2.70;;;;;;;23.92;42.92;101985.59;5051916;27;96790;-76
2023/05/13 10:35:56;;;;;;;5.03;2.60;;;;;;;23.93;43.16;101984.59;5047699;27;97043;-75
2023/05/13 10:38:43;;;;;;;2.97;2.33;;;;;;;23.93;43.13;101987.31;5045773;27;97630;-75
2023/05/13 10:41:29;;;;;;;2.83;2.33;;;;;;;23.93;42.89;101984.59;5033112;27;96614;-75
2023/05/13 10:43:57;;;;;;;2.92;2.47;;;;;;;23.93;43.10;101984.59;5031547;27;97162;-75
2023/05/13 10:46:24;;;;;;;5.57;2.70;;;;;;;23.93;43.29;101981.84;5033845;27;97283;-75
2023/05/13 10:48:57;;;;;;;3.70;2.80;;;;;;;23.94;43.05;101989.03;5032513;27;97448;-75
2023/05/13 10:51:24;;;;;;;2.55;2.35;;;;;;;23.94;43.20;101983.56;5035730;27;96669;-75
2023/05/13 10:53:53;;;;;;;2.67;2.47;;;;;;;23.95;43.15;101988.00;5039058;27;97032;-75
2023/05/13 10:56:21;;;;;;;2.50;2.30;;;;;;;23.96;43.14;101980.63;5048407;27;96618;-75
2023/05/13 10:59:00;;;;;;;3.20;2.47;;;;;;;23.97;42.88;101987.84;5046528;27;96713;-75
2023/05/13 11:01:30;;;;;;;4.38;2.72;;;;;;;23.96;42.98;101984.25;5047313;27;96995;-75
2023/05/13 11:04:03;;;;;;;2.65;2.10;;;;;;;23.96;43.11;101984.25;5034627;27;96696;-76
2023/05/13 11:06:35;;;;;;;3.00;2.47;;;;;;;23.97;42.92;101979.63;5020037;27;97135;-75
2023/05/13 11:09:21;;;;;;;2.53;2.25;;;;;;;23.97;43.13;101980.47;5033942;27;98123;-76
2023/05/13 11:11:52;;;;;;;2.30;2.10;;;;;;;23.96;43.22;101976.00;5035314;27;96718;-76
2023/05/13 11:14:21;;;;;;;2.90;2.33;;;;;;;23.96;43.03;101976.00;5036218;27;97183;-76
2023/05/13 11:16:59;;;;;;;2.60;2.40;;;;;;;23.99;43.32;101963.84;5034605;27;96829;-76
2023/05/13 11:19:29;;;;;;;2.97;2.60;;;;;;;23.97;43.02;101972.25;5036119;27;96808;-76
2023/05/13 11:21:58;;;;;;;3.20;2.30;;;;;;;23.97;43.19;101972.25;5031997;27;100780;-76
2023/05/13 11:24:25;;;;;;;2.75;2.25;;;;;;;23.98;43.25;101975.84;5045110;27;96967;-76
2023/05/13 11:26:57;;;;;;;2.55;2.35;;;;;;;23.99;43.28;101967.44;5044472;27;97741;-76
2023/05/13 11:29:32;;;;;;;2.63;2.35;;;;;;;23.99;43.28;101961.94;5031411;27;97819;-76